Overview Statistics Trail Chart Weather Telemetry Raw packets
 

This is the latest recevied weather packets stored in our database for station/object K2CAT. If no packets are shown the sender has not sent any weather packets the latest 10 day(s).

<< 32 33 34 35 36 37 38 >>
Time Temp. Humidity Pressure Rain* Wind** Luminosity Snow
1777486902 18.33° C 52% 1012.2 hPa 0 mm - 223 W/m² -
1777486599 18.33° C 53% 1012 hPa 0 mm - 192 W/m² -
1777486297 17.78° C 53% 1012.2 hPa 0 mm - 171 W/m² -
1777485994 18.33° C 53% 1012.3 hPa 0 mm - 129 W/m² -
1777485691 18.33° C 55% 1012.2 hPa 0 mm - 131 W/m² -
1777485386 18.89° C 55% 1012.1 hPa 0 mm - 164 W/m² -
1777485087 18.89° C 53% 1012.2 hPa 0 mm - 190 W/m² -
1777484780 18.89° C 54% 1012.4 hPa 0 mm - 286 W/m² -
1777484475 19.44° C 52% 1012.3 hPa 0 mm - 295 W/m² -
1777484173 18.89° C 50% 1012.4 hPa 0 mm - 314 W/m² -
1777483868 18.89° C 56% 1012.5 hPa 0 mm - 415 W/m² -
1777483566 18.33° C 52% 1012.8 hPa 0 mm - 315 W/m² -
1777483266 18.33° C 54% 1012.8 hPa 0 mm - 232 W/m² -
1777482962 18.33° C 53% 1012.5 hPa 0 mm - 204 W/m² -
1777482658 17.78° C 55% 1012.6 hPa 0 mm - 213 W/m² -
1777482355 18.33° C 54% 1012.7 hPa 0 mm - 235 W/m² -
1777482053 17.78° C 54% 1013 hPa 0 mm - 242 W/m² -
1777481750 18.33° C 54% 1012.9 hPa 0 mm - 225 W/m² -
1777481448 17.78° C 56% 1013.1 hPa 0 mm - 222 W/m² -
1777481143 17.78° C 55% 1013.2 hPa 0 mm - 223 W/m² -
1777480840 17.78° C 56% 1013.4 hPa 0 mm - 265 W/m² -
1777480537 18.33° C 54% 1013.4 hPa 0 mm - 208 W/m² -
1777480234 17.78° C 55% 1013.6 hPa 0 mm - 225 W/m² -
1777479930 17.78° C 55% 1013.5 hPa 0 mm - 303 W/m² -
1777479627 17.78° C 55% 1013.7 hPa 0 mm - 214 W/m² -

* Rain latest hour (hover to see other rain measurements)
** Current wind speed in m/s (hover to see current wind gust speed)